createdAt,value
2022-07-29T00:00:00.380Z,98926.34
2022-07-29T00:02:28.341Z,98925.22
2022-07-29T00:04:55.691Z,98922.47
2022-07-29T00:07:22.548Z,98918.44
2022-07-29T00:09:52.543Z,98916.88
2022-07-29T00:12:25.759Z,98917.94
2022-07-29T00:14:54.843Z,98923.19
2022-07-29T00:17:22.443Z,98920.63
2022-07-29T00:19:49.345Z,98918.06
2022-07-29T00:22:16.232Z,98911.22
2022-07-29T00:24:43.342Z,98912.88
2022-07-29T00:27:10.332Z,98910.91
2022-07-29T00:29:37.179Z,98913.84
2022-07-29T00:32:04.503Z,98914.06
2022-07-29T00:34:50.185Z,98918.25
2022-07-29T00:37:17.520Z,98915.69
2022-07-29T00:39:44.406Z,98918.84
2022-07-29T00:42:11.324Z,98909.09
2022-07-29T00:44:41.907Z,98912.88
2022-07-29T00:47:09.548Z,98923.25
2022-07-29T00:49:36.609Z,98923.63
2022-07-29T00:52:07.236Z,98916.59
2022-07-29T00:54:34.861Z,98921.84
2022-07-29T00:57:01.897Z,98918.00
2022-07-29T00:59:34.547Z,98903.59
2022-07-29T01:02:03.950Z,98905.50
2022-07-29T01:04:31.999Z,98904.38
2022-07-29T01:06:58.954Z,98902.19
2022-07-29T01:09:45.221Z,98908.75
2022-07-29T01:12:15.793Z,98899.19
2022-07-29T01:14:42.732Z,98895.59
2022-07-29T01:17:20.508Z,98893.63
2022-07-29T01:19:53.624Z,98893.50
2022-07-29T01:22:23.080Z,98896.06
2022-07-29T01:25:27.611Z,98887.38
2022-07-29T01:28:01.349Z,98885.00
2022-07-29T01:30:28.518Z,98890.03
2022-07-29T01:32:57.566Z,98884.53
2022-07-29T01:35:26.256Z,98878.59
2022-07-29T01:38:16.432Z,98880.22
2022-07-29T01:40:54.492Z,98885.91
2022-07-29T01:43:24.734Z,98887.13
2022-07-29T01:45:58.910Z,98885.13
2022-07-29T01:48:31.557Z,98876.06
2022-07-29T01:51:34.704Z,98878.53
2022-07-29T01:54:11.699Z,98883.84
2022-07-29T01:56:38.645Z,98885.84
2022-07-29T01:59:05.958Z,98886.50
2022-07-29T02:01:33.664Z,98882.91
2022-07-29T02:04:00.783Z,98893.22
2022-07-29T02:06:27.834Z,98881.94
2022-07-29T02:08:54.765Z,98880.47
2022-07-29T02:11:21.607Z,98877.91
2022-07-29T02:13:48.711Z,98863.91
2022-07-29T02:16:16.263Z,98865.81
2022-07-29T02:18:44.587Z,98866.00
2022-07-29T02:21:15.554Z,98877.34
2022-07-29T02:23:50.505Z,98874.59
2022-07-29T02:26:18.979Z,98866.75
2022-07-29T02:28:45.833Z,98869.38
2022-07-29T02:31:12.717Z,98864.72
2022-07-29T02:33:39.891Z,98861.50
2022-07-29T02:36:07.002Z,98863.41
2022-07-29T02:38:52.216Z,98859.53
2022-07-29T02:41:27.535Z,98860.75
2022-07-29T02:43:59.883Z,98857.06
2022-07-29T02:46:35.252Z,98858.00
2022-07-29T02:49:11.509Z,98861.03
2022-07-29T02:51:45.049Z,98857.81
2022-07-29T02:54:16.817Z,98855.72
2022-07-29T02:56:44.090Z,98857.63
2022-07-29T02:59:11.706Z,98864.16
2022-07-29T03:01:40.627Z,98863.31
2022-07-29T03:04:07.843Z,98859.91
2022-07-29T03:06:38.622Z,98856.28
2022-07-29T03:09:12.780Z,98850.16
2022-07-29T03:11:49.847Z,98853.25
2022-07-29T03:14:21.364Z,98862.38
2022-07-29T03:16:49.405Z,98852.78
2022-07-29T03:19:16.303Z,98862.44
2022-07-29T03:21:43.171Z,98862.06
2022-07-29T03:24:10.993Z,98860.53
2022-07-29T03:26:38.123Z,98862.63
2022-07-29T03:29:05.102Z,98864.03
2022-07-29T03:31:33.494Z,98864.03
2022-07-29T03:34:00.677Z,98863.38
2022-07-29T03:36:27.673Z,98866.28
2022-07-29T03:38:55.705Z,98865.44
2022-07-29T03:41:22.746Z,98864.97
2022-07-29T03:43:50.025Z,98865.34
2022-07-29T03:46:17.305Z,98856.66
2022-07-29T03:48:47.362Z,98847.56
2022-07-29T03:51:14.314Z,98849.63
2022-07-29T03:53:41.425Z,98854.44
2022-07-29T03:56:08.272Z,98845.75
2022-07-29T03:58:35.165Z,98844.91
2022-07-29T04:01:02.252Z,98846.59
2022-07-29T04:03:29.209Z,98845.13
2022-07-29T04:06:03.658Z,98853.47
2022-07-29T04:08:30.765Z,98855.88
2022-07-29T04:10:57.666Z,98856.38
2022-07-29T04:13:24.602Z,98855.16
2022-07-29T04:15:52.115Z,98851.28
2022-07-29T04:18:19.325Z,98846.16
2022-07-29T04:20:46.442Z,98843.72
2022-07-29T04:23:13.906Z,98833.28
2022-07-29T04:25:41.434Z,98839.28
2022-07-29T04:28:08.903Z,98850.06
2022-07-29T04:30:36.751Z,98853.47
2022-07-29T04:33:05.297Z,98863.56
2022-07-29T04:35:36.686Z,98856.38
2022-07-29T04:38:07.210Z,98861.88
2022-07-29T04:40:34.734Z,98865.13
2022-07-29T04:43:05.876Z,98868.53
2022-07-29T04:45:33.410Z,98861.19
2022-07-29T04:48:00.337Z,98856.53
2022-07-29T04:50:27.674Z,98862.31
2022-07-29T04:52:54.970Z,98851.91
2022-07-29T04:55:22.469Z,98858.63
2022-07-29T04:57:49.410Z,98857.91
2022-07-29T05:00:16.952Z,98859.47
2022-07-29T05:02:44.211Z,98857.84
2022-07-29T05:05:11.194Z,98851.44
2022-07-29T05:07:38.798Z,98849.00
2022-07-29T05:10:06.359Z,98856.00
2022-07-29T05:12:33.329Z,98858.28
2022-07-29T05:15:00.834Z,98853.75
2022-07-29T05:17:27.751Z,98852.34
2022-07-29T05:19:54.723Z,98848.28
2022-07-29T05:22:22.207Z,98851.50
2022-07-29T05:24:49.771Z,98853.63
2022-07-29T05:27:16.954Z,98840.03
2022-07-29T05:29:45.771Z,98841.53
2022-07-29T05:32:13.718Z,98844.56
2022-07-29T05:34:51.423Z,98842.56
2022-07-29T05:37:22.393Z,98846.88
2022-07-29T05:39:56.348Z,98844.03
2022-07-29T05:42:25.358Z,98841.75
2022-07-29T05:44:52.617Z,98833.97
2022-07-29T05:47:19.798Z,98832.34
2022-07-29T05:49:47.242Z,98832.44
2022-07-29T05:52:17.027Z,98827.41
2022-07-29T05:54:44.166Z,98839.53
2022-07-29T05:57:22.219Z,98844.25
2022-07-29T05:59:49.323Z,98854.16
2022-07-29T06:02:17.407Z,98865.03
2022-07-29T06:04:44.574Z,98862.75
2022-07-29T06:07:12.375Z,98870.03
2022-07-29T06:09:39.698Z,98858.47
2022-07-29T06:12:06.852Z,98849.06
2022-07-29T06:14:33.915Z,98859.69
2022-07-29T06:17:01.223Z,98859.94
2022-07-29T06:19:28.254Z,98858.28
2022-07-29T06:21:55.276Z,98853.06
2022-07-29T06:24:22.348Z,98850.38
2022-07-29T06:26:49.559Z,98855.09
2022-07-29T06:29:16.439Z,98854.31
2022-07-29T06:31:43.846Z,98855.41
2022-07-29T06:34:11.035Z,98855.47
2022-07-29T06:36:39.808Z,98854.47
2022-07-29T06:39:09.298Z,98855.75
2022-07-29T06:41:38.734Z,98860.72
2022-07-29T06:44:05.799Z,98862.88
2022-07-29T06:46:33.312Z,98864.16
2022-07-29T06:49:02.557Z,98870.97
2022-07-29T06:51:29.822Z,98867.59
2022-07-29T06:54:02.508Z,98872.31
2022-07-29T06:56:31.888Z,98870.00
2022-07-29T06:58:59.017Z,98869.53
2022-07-29T07:01:26.062Z,98869.59
2022-07-29T07:03:53.154Z,98869.00
2022-07-29T07:06:20.244Z,98875.78
2022-07-29T07:08:47.153Z,98871.19
2022-07-29T07:11:14.067Z,98869.06
2022-07-29T07:13:41.282Z,98872.47
2022-07-29T07:16:08.136Z,98866.16
2022-07-29T07:18:35.012Z,98871.28
2022-07-29T07:21:02.337Z,98867.47
2022-07-29T07:23:29.201Z,98877.91
2022-07-29T07:25:56.106Z,98878.16
2022-07-29T07:28:25.007Z,98883.25
2022-07-29T07:30:52.821Z,98876.47
2022-07-29T07:33:20.341Z,98881.81
2022-07-29T07:35:47.784Z,98873.97
2022-07-29T07:38:14.776Z,98874.66
2022-07-29T07:40:41.929Z,98875.94
2022-07-29T07:43:09.005Z,98871.28
2022-07-29T07:45:38.352Z,98868.56
2022-07-29T07:48:05.959Z,98870.28
2022-07-29T07:50:33.123Z,98864.78
2022-07-29T07:53:00.554Z,98865.47
2022-07-29T07:55:27.693Z,98868.03
2022-07-29T07:57:55.529Z,98871.00
2022-07-29T08:00:23.044Z,98865.09
2022-07-29T08:02:51.291Z,98869.09
2022-07-29T08:05:19.348Z,98862.75
2022-07-29T08:07:46.887Z,98865.72
2022-07-29T08:10:37.418Z,98868.69
2022-07-29T08:13:05.416Z,98877.41
2022-07-29T08:15:32.570Z,98867.88
2022-07-29T08:17:59.762Z,98875.28
2022-07-29T08:20:27.044Z,98871.03
2022-07-29T08:22:54.603Z,98869.75
2022-07-29T08:25:21.736Z,98871.03
2022-07-29T08:27:49.269Z,98869.09
2022-07-29T08:30:16.282Z,98866.72
2022-07-29T08:32:53.657Z,98863.53
2022-07-29T08:35:22.770Z,98866.50
2022-07-29T08:37:49.823Z,98861.19
2022-07-29T08:40:16.872Z,98864.34
2022-07-29T08:42:44.125Z,98859.03
2022-07-29T08:45:11.279Z,98858.75
2022-07-29T08:47:41.620Z,98862.16
2022-07-29T08:50:09.604Z,98850.00
2022-07-29T08:52:40.672Z,98854.44
2022-07-29T08:55:08.587Z,98856.75
2022-07-29T08:57:37.219Z,98855.00
2022-07-29T09:00:07.901Z,98861.56
2022-07-29T09:02:43.264Z,98868.59
2022-07-29T09:05:13.701Z,98875.78
2022-07-29T09:07:41.039Z,98863.81
2022-07-29T09:10:08.494Z,98858.47
2022-07-29T09:12:37.999Z,98855.94
2022-07-29T09:15:05.806Z,98864.00
2022-07-29T09:17:49.309Z,98865.81
2022-07-29T09:20:22.144Z,98867.97
2022-07-29T09:22:50.366Z,98859.78
2022-07-29T09:25:37.193Z,98864.66
2022-07-29T09:28:10.351Z,98859.91
2022-07-29T09:30:51.163Z,98860.72
2022-07-29T09:33:18.330Z,98852.81
2022-07-29T09:35:56.902Z,98849.97
2022-07-29T09:38:24.583Z,98854.84
2022-07-29T09:41:01.138Z,98853.94
2022-07-29T09:43:33.056Z,98854.94
2022-07-29T09:46:13.241Z,98844.88
2022-07-29T09:48:40.372Z,98841.72
2022-07-29T09:51:25.508Z,98841.13
2022-07-29T09:53:55.606Z,98833.47
2022-07-29T09:56:41.863Z,98834.34
2022-07-29T09:59:09.523Z,98833.06
2022-07-29T10:01:37.073Z,98835.31
2022-07-29T10:04:04.371Z,98825.38
2022-07-29T10:06:31.286Z,98824.50
2022-07-29T10:09:19.129Z,98828.13
2022-07-29T10:12:16.448Z,98827.53
2022-07-29T10:14:43.662Z,98822.44
2022-07-29T10:17:11.462Z,98812.31
2022-07-29T10:19:39.253Z,98822.00
2022-07-29T10:22:08.273Z,98817.66
2022-07-29T10:24:36.340Z,98813.53
2022-07-29T10:27:03.903Z,98810.44
2022-07-29T10:29:32.606Z,98817.47
2022-07-29T10:32:05.730Z,98809.88
2022-07-29T10:34:56.763Z,98821.09
2022-07-29T10:38:17.258Z,98820.88
2022-07-29T10:41:32.283Z,98822.69
2022-07-29T10:44:14.745Z,98823.03
2022-07-29T10:46:44.870Z,98825.34
2022-07-29T10:49:11.918Z,98823.06
2022-07-29T10:51:51.824Z,98825.81
2022-07-29T10:54:19.703Z,98822.22
2022-07-29T10:56:47.716Z,98820.38
2022-07-29T10:59:21.743Z,98813.84
2022-07-29T11:01:53.429Z,98820.25
2022-07-29T11:04:46.949Z,98821.56
2022-07-29T11:07:15.609Z,98820.84
2022-07-29T11:09:46.492Z,98820.22
2022-07-29T11:12:39.346Z,98816.22
2022-07-29T11:15:17.974Z,98821.44
2022-07-29T11:17:59.210Z,98820.47
2022-07-29T11:20:45.842Z,98812.97
2022-07-29T11:23:42.832Z,98816.56
2022-07-29T11:26:23.094Z,98816.09
2022-07-29T11:29:05.275Z,98814.13
2022-07-29T11:31:39.723Z,98819.22
2022-07-29T11:34:20.899Z,98811.13
2022-07-29T11:37:13.595Z,98813.41
2022-07-29T11:40:01.533Z,98807.00
2022-07-29T11:42:33.058Z,98815.59
2022-07-29T11:45:43.524Z,98817.25
2022-07-29T11:48:31.323Z,98813.41
2022-07-29T11:50:49.302Z,98820.03
2022-07-29T11:53:17.266Z,98814.75
2022-07-29T11:55:51.626Z,98807.84
2022-07-29T11:58:26.164Z,98806.41
2022-07-29T12:00:55.447Z,98802.78
2022-07-29T12:03:35.268Z,98794.44
2022-07-29T12:06:07.944Z,98798.31
2022-07-29T12:08:41.305Z,98797.22
2022-07-29T12:11:16.356Z,98790.81
2022-07-29T12:13:43.529Z,98795.28
2022-07-29T12:16:10.814Z,98791.41
2022-07-29T12:18:41.739Z,98790.22
2022-07-29T12:21:09.374Z,98787.19
2022-07-29T12:23:39.384Z,98787.78
2022-07-29T12:26:07.527Z,98781.38
2022-07-29T12:28:39.417Z,98774.72
2022-07-29T12:31:06.457Z,98777.25
2022-07-29T12:33:36.071Z,98773.38
2022-07-29T12:36:07.197Z,98767.59
2022-07-29T12:38:36.238Z,98767.91
2022-07-29T12:41:04.583Z,98757.88
2022-07-29T12:43:32.212Z,98751.81
2022-07-29T12:45:59.137Z,98757.13
2022-07-29T12:48:42.746Z,98745.78
2022-07-29T12:51:10.203Z,98751.66
2022-07-29T12:53:37.363Z,98740.78
2022-07-29T12:56:15.493Z,98737.25
2022-07-29T12:58:52.779Z,98730.59
2022-07-29T13:01:21.045Z,98733.38
2022-07-29T13:03:56.867Z,98726.22
2022-07-29T13:06:39.369Z,98721.75
2022-07-29T13:09:23.461Z,98724.38
2022-07-29T13:11:52.028Z,98721.34
2022-07-29T13:14:32.910Z,98727.47
2022-07-29T13:17:11.593Z,98719.38
2022-07-29T13:19:39.415Z,98720.34
2022-07-29T13:22:06.547Z,98722.03
2022-07-29T13:24:33.600Z,98712.09
2022-07-29T13:27:00.473Z,98717.81
2022-07-29T13:29:31.489Z,98707.13
2022-07-29T13:31:59.228Z,98701.06
2022-07-29T13:34:26.312Z,98708.66
2022-07-29T13:36:55.856Z,98703.66
2022-07-29T13:39:23.020Z,98699.88
2022-07-29T13:41:50.515Z,98695.97
2022-07-29T13:44:18.474Z,98687.63
2022-07-29T13:46:45.366Z,98694.66
2022-07-29T13:49:12.416Z,98689.41
2022-07-29T13:51:39.821Z,98687.38
2022-07-29T13:54:06.662Z,98681.31
2022-07-29T13:56:33.676Z,98683.91
2022-07-29T13:59:01.129Z,98686.44
2022-07-29T14:01:28.694Z,98684.75
2022-07-29T14:03:55.753Z,98687.97
2022-07-29T14:06:23.065Z,98685.50
2022-07-29T14:08:50.080Z,98673.50
2022-07-29T14:11:16.928Z,98671.91
2022-07-29T14:13:44.001Z,98670.53
2022-07-29T14:16:10.950Z,98673.31
2022-07-29T14:18:37.914Z,98665.84
2022-07-29T14:21:05.052Z,98670.31
2022-07-29T14:23:32.397Z,98666.69
2022-07-29T14:25:59.286Z,98668.66
2022-07-29T14:28:26.434Z,98669.47
2022-07-29T14:30:53.309Z,98675.88
2022-07-29T14:33:20.785Z,98677.00
2022-07-29T14:35:47.862Z,98676.75
2022-07-29T14:38:14.781Z,98675.03
2022-07-29T14:40:41.676Z,98675.03
2022-07-29T14:43:09.030Z,98673.09
2022-07-29T14:45:36.017Z,98669.47
2022-07-29T14:48:02.976Z,98666.91
2022-07-29T14:50:31.386Z,98662.44
2022-07-29T14:52:58.706Z,98656.03
2022-07-29T14:55:25.624Z,98656.88
2022-07-29T14:57:56.370Z,98662.44
2022-07-29T15:00:27.608Z,98659.91
2022-07-29T15:03:02.886Z,98662.44
2022-07-29T15:05:33.623Z,98668.00
2022-07-29T15:08:00.833Z,98669.94
2022-07-29T15:10:28.249Z,98665.22
2022-07-29T15:12:55.850Z,98678.56
2022-07-29T15:15:23.028Z,98676.03
2022-07-29T15:17:50.077Z,98678.56
2022-07-29T15:20:17.018Z,98686.34
2022-07-29T15:22:44.297Z,98689.13
2022-07-29T15:25:11.194Z,98683.81
2022-07-29T15:27:38.038Z,98686.84
2022-07-29T15:30:05.637Z,98683.47
2022-07-29T15:32:32.579Z,98685.69
2022-07-29T15:34:59.485Z,98679.50
2022-07-29T15:37:26.647Z,98688.91
2022-07-29T15:39:56.000Z,98683.25
2022-07-29T15:42:26.723Z,98680.97
2022-07-29T15:44:53.835Z,98679.78
2022-07-29T15:47:20.765Z,98685.28
2022-07-29T15:49:49.530Z,98681.91
2022-07-29T15:52:25.920Z,98677.97
2022-07-29T15:54:56.985Z,98680.13
2022-07-29T15:57:24.522Z,98677.88
2022-07-29T15:59:52.054Z,98677.78
2022-07-29T16:02:19.119Z,98664.63
2022-07-29T16:04:46.247Z,98663.75
2022-07-29T16:07:14.272Z,98658.09
2022-07-29T16:09:42.027Z,98654.47
2022-07-29T16:12:10.571Z,98653.41
2022-07-29T16:14:42.718Z,98648.09
2022-07-29T16:17:09.619Z,98647.50
2022-07-29T16:19:42.827Z,98646.91
2022-07-29T16:22:09.724Z,98646.56
2022-07-29T16:24:36.591Z,98648.19
2022-07-29T16:27:03.807Z,98647.84
2022-07-29T16:29:30.671Z,98648.34
2022-07-29T16:31:57.734Z,98644.34
2022-07-29T16:34:24.917Z,98643.19
2022-07-29T16:36:51.798Z,98648.66
2022-07-29T16:39:18.769Z,98659.19
2022-07-29T16:41:45.877Z,98661.03
2022-07-29T16:44:12.787Z,98675.38
2022-07-29T16:46:40.841Z,98677.00
2022-07-29T16:49:08.826Z,98689.44
2022-07-29T16:51:35.710Z,98700.22
2022-07-29T16:54:02.625Z,98700.13
2022-07-29T16:56:29.781Z,98695.28
2022-07-29T16:58:59.589Z,98702.09
2022-07-29T17:01:26.581Z,98706.34
2022-07-29T17:04:06.277Z,98706.03
2022-07-29T17:06:37.900Z,98706.38
2022-07-29T17:09:06.063Z,98706.91
2022-07-29T17:11:53.686Z,98703.31
2022-07-29T17:14:24.296Z,98713.19
2022-07-29T17:17:01.328Z,98711.84
2022-07-29T17:19:33.713Z,98713.91
2022-07-29T17:22:11.305Z,98714.13
2022-07-29T17:24:41.483Z,98699.75
2022-07-29T17:27:09.524Z,98698.44
2022-07-29T17:29:36.423Z,98690.81
2022-07-29T17:32:03.712Z,98689.75
2022-07-29T17:34:30.636Z,98694.53
2022-07-29T17:36:57.951Z,98694.41
2022-07-29T17:39:25.149Z,98686.66
2022-07-29T17:41:52.040Z,98693.50
2022-07-29T17:44:18.996Z,98699.63
2022-07-29T17:46:46.183Z,98698.88
2022-07-29T17:49:13.160Z,98710.81
2022-07-29T17:51:40.094Z,98698.84
2022-07-29T17:54:07.214Z,98700.63
2022-07-29T17:56:34.159Z,98701.94
2022-07-29T17:59:06.382Z,98697.56
2022-07-29T18:01:34.038Z,98695.72
2022-07-29T18:04:01.146Z,98695.31
2022-07-29T18:06:27.994Z,98697.34
2022-07-29T18:08:55.494Z,98696.59
2022-07-29T18:11:22.928Z,98697.88
2022-07-29T18:13:49.984Z,98697.03
2022-07-29T18:16:17.301Z,98703.56
2022-07-29T18:18:45.013Z,98696.28
2022-07-29T18:21:11.990Z,98692.44
2022-07-29T18:23:39.072Z,98690.03
2022-07-29T18:26:05.945Z,98696.13
2022-07-29T18:28:32.987Z,98709.34
2022-07-29T18:31:00.807Z,98713.66
2022-07-29T18:33:27.914Z,98716.81
2022-07-29T18:36:11.109Z,98720.28
2022-07-29T18:38:41.956Z,98732.06
2022-07-29T18:41:08.876Z,98737.19
2022-07-29T18:43:35.924Z,98738.50
2022-07-29T18:46:03.139Z,98740.09
2022-07-29T18:48:29.978Z,98742.38
2022-07-29T18:50:57.065Z,98744.00
2022-07-29T18:53:24.167Z,98740.38
2022-07-29T18:55:51.039Z,98753.56
2022-07-29T18:58:18.030Z,98751.91
2022-07-29T19:00:45.139Z,98763.34
2022-07-29T19:03:12.127Z,98763.63
2022-07-29T19:05:39.095Z,98766.41
2022-07-29T19:08:06.587Z,98762.63
2022-07-29T19:10:33.482Z,98758.22
2022-07-29T19:13:00.527Z,98749.81
2022-07-29T19:15:27.800Z,98744.53
2022-07-29T19:17:59.058Z,98747.47
2022-07-29T19:20:28.470Z,98744.00
2022-07-29T19:22:55.358Z,98737.84
2022-07-29T19:25:23.281Z,98731.03
2022-07-29T19:27:50.378Z,98728.91
2022-07-29T19:30:17.298Z,98727.72
2022-07-29T19:32:44.202Z,98729.22
2022-07-29T19:35:31.359Z,98727.75
2022-07-29T19:38:00.101Z,98722.03
2022-07-29T19:40:27.755Z,98709.09
2022-07-29T19:42:54.996Z,98712.91
2022-07-29T19:45:22.867Z,98712.28
2022-07-29T19:47:50.051Z,98714.78
2022-07-29T19:50:17.118Z,98716.16
2022-07-29T19:52:45.240Z,98722.75
2022-07-29T19:55:12.539Z,98721.94
2022-07-29T19:57:41.222Z,98720.22
2022-07-29T20:00:12.259Z,98718.72
2022-07-29T20:02:40.136Z,98710.88
2022-07-29T20:05:08.094Z,98708.19
2022-07-29T20:07:35.083Z,98707.94
2022-07-29T20:10:02.596Z,98704.78
2022-07-29T20:12:29.521Z,98694.41
2022-07-29T20:14:56.512Z,98688.88
2022-07-29T20:17:23.614Z,98686.56
2022-07-29T20:19:50.802Z,98684.44
2022-07-29T20:22:20.859Z,98689.13
2022-07-29T20:24:48.634Z,98678.72
2022-07-29T20:27:15.481Z,98669.63
2022-07-29T20:29:42.429Z,98675.56
2022-07-29T20:32:09.518Z,98677.50
2022-07-29T20:34:36.474Z,98666.88
2022-07-29T20:37:03.557Z,98669.88
2022-07-29T20:39:30.701Z,98660.97
2022-07-29T20:41:57.601Z,98651.66
2022-07-29T20:44:24.643Z,98652.09
2022-07-29T20:46:51.900Z,98647.19
2022-07-29T20:49:18.886Z,98641.28
2022-07-29T20:51:45.882Z,98641.91
2022-07-29T20:54:13.043Z,98638.31
2022-07-29T20:56:41.383Z,98644.88
2022-07-29T20:59:08.940Z,98649.16
2022-07-29T21:01:36.272Z,98652.13
2022-07-29T21:04:03.431Z,98653.59
2022-07-29T21:06:30.478Z,98642.13
2022-07-29T21:08:59.516Z,98638.53
2022-07-29T21:11:43.148Z,98643.19
2022-07-29T21:14:30.466Z,98641.94
2022-07-29T21:16:57.517Z,98644.91
2022-07-29T21:19:24.759Z,98640.25
2022-07-29T21:21:51.637Z,98643.66
2022-07-29T21:24:19.233Z,98643.22
2022-07-29T21:26:54.445Z,98647.25
2022-07-29T21:29:31.868Z,98653.59
2022-07-29T21:31:58.949Z,98649.38
2022-07-29T21:34:28.041Z,98652.53
2022-07-29T21:36:54.938Z,98652.97
2022-07-29T21:39:22.091Z,98652.53
2022-07-29T21:41:49.031Z,98655.94
2022-07-29T21:44:15.900Z,98663.34
2022-07-29T21:46:43.085Z,98655.31
2022-07-29T21:49:10.057Z,98664.00
2022-07-29T21:51:36.947Z,98657.84
2022-07-29T21:54:04.303Z,98660.19
2022-07-29T21:56:31.432Z,98663.38
2022-07-29T21:58:58.512Z,98663.78
2022-07-29T22:01:25.746Z,98664.00
2022-07-29T22:06:38.199Z,98661.22
2022-07-29T22:09:05.601Z,98657.63
2022-07-29T22:11:32.501Z,98654.03
2022-07-29T22:13:59.694Z,98649.59
2022-07-29T22:16:26.622Z,98645.78
2022-07-29T22:18:53.573Z,98644.28
2022-07-29T22:21:20.725Z,98643.66
2022-07-29T22:23:47.581Z,98646.63
2022-07-29T22:26:14.483Z,98648.94
2022-07-29T22:28:41.636Z,98636.22
2022-07-29T22:31:08.534Z,98630.09
2022-07-29T22:33:35.604Z,98628.78
2022-07-29T22:36:02.728Z,98621.81
2022-07-29T22:38:29.598Z,98619.66
2022-07-29T22:40:58.769Z,98622.81
2022-07-29T22:43:28.493Z,98618.19
2022-07-29T22:45:55.582Z,98619.84
2022-07-29T22:48:22.743Z,98615.22
2022-07-29T22:50:49.833Z,98606.28
2022-07-29T22:53:16.857Z,98599.53
2022-07-29T22:55:45.589Z,98606.69
2022-07-29T22:58:12.767Z,98592.09
2022-07-29T23:00:39.666Z,98598.22
2022-07-29T23:03:06.529Z,98590.81
2022-07-29T23:05:33.762Z,98588.91
2022-07-29T23:08:00.876Z,98588.06
2022-07-29T23:10:28.289Z,98586.56
2022-07-29T23:12:55.482Z,98582.13
2022-07-29T23:15:23.105Z,98591.00
2022-07-29T23:17:49.997Z,98581.03
2022-07-29T23:20:17.107Z,98573.19
2022-07-29T23:22:44.074Z,98579.16
2022-07-29T23:25:10.961Z,98578.47
2022-07-29T23:27:38.099Z,98566.00
2022-07-29T23:30:05.506Z,98570.88
2022-07-29T23:32:32.426Z,98562.81
2022-07-29T23:34:59.514Z,98571.28
2022-07-29T23:37:26.969Z,98568.31
2022-07-29T23:39:54.178Z,98569.16
2022-07-29T23:42:21.516Z,98564.25
2022-07-29T23:44:48.641Z,98560.69
2022-07-29T23:47:15.651Z,98566.75
2022-07-29T23:49:42.961Z,98570.78
2022-07-29T23:52:10.030Z,98574.34
2022-07-29T23:54:37.365Z,98576.25
2022-07-29T23:57:04.719Z,98566.94
2022-07-29T23:59:31.646Z,98566.50
